sensor_id;sensor_type;location;lat;lon;timestamp;pressure;altitude;pressure_sealevel;temperature;humidity
69784;BME280;57054;51.978;4.498;2023-12-04T00:00:32;101176.00;;;1.14;100.00
69784;BME280;57054;51.978;4.498;2023-12-04T00:02:57;101175.13;;;1.12;100.00
69784;BME280;57054;51.978;4.498;2023-12-04T00:05:23;101186.28;;;1.11;100.00
69784;BME280;57054;51.978;4.498;2023-12-04T00:07:48;101174.25;;;1.08;100.00
69784;BME280;57054;51.978;4.498;2023-12-04T00:10:13;101171.66;;;1.08;100.00
69784;BME280;57054;51.978;4.498;2023-12-04T00:12:39;101165.66;;;1.11;100.00
69784;BME280;57054;51.978;4.498;2023-12-04T00:15:05;101166.53;;;1.13;100.00
69784;BME280;57054;51.978;4.498;2023-12-04T00:17:30;101162.22;;;1.10;100.00
69784;BME280;57054;51.978;4.498;2023-12-04T00:19:56;101155.31;;;1.11;100.00
69784;BME280;57054;51.978;4.498;2023-12-04T00:22:21;101157.91;;;1.11;100.00
69784;BME280;57054;51.978;4.498;2023-12-04T00:24:46;101156.22;;;1.13;100.00
69784;BME280;57054;51.978;4.498;2023-12-04T00:27:12;101151.91;;;1.12;100.00
69784;BME280;57054;51.978;4.498;2023-12-04T00:29:37;101142.44;;;1.11;100.00
69784;BME280;57054;51.978;4.498;2023-12-04T00:32:02;101140.72;;;1.08;100.00
69784;BME280;57054;51.978;4.498;2023-12-04T00:34:28;101141.56;;;1.09;100.00
69784;BME280;57054;51.978;4.498;2023-12-04T00:36:53;101131.25;;;1.07;100.00
69784;BME280;57054;51.978;4.498;2023-12-04T00:39:19;101126.97;;;1.08;100.00
69784;BME280;57054;51.978;4.498;2023-12-04T00:41:44;101120.91;;;1.07;100.00
69784;BME280;57054;51.978;4.498;2023-12-04T00:44:09;101119.25;;;1.09;100.00
69784;BME280;57054;51.978;4.498;2023-12-04T00:46:35;101126.13;;;1.12;100.00
69784;BME280;57054;51.978;4.498;2023-12-04T00:49:00;101126.94;;;1.11;100.00
69784;BME280;57054;51.978;4.498;2023-12-04T00:51:25;101121.81;;;1.09;100.00
69784;BME280;57054;51.978;4.498;2023-12-04T00:53:51;101122.66;;;1.08;100.00
69784;BME280;57054;51.978;4.498;2023-12-04T00:56:16;101119.25;;;1.09;100.00
69784;BME280;57054;51.978;4.498;2023-12-04T00:58:43;101123.50;;;1.09;100.00
69784;BME280;57054;51.978;4.498;2023-12-04T01:01:09;101120.09;;;1.10;100.00
69784;BME280;57054;51.978;4.498;2023-12-04T01:03:34;101118.38;;;1.12;100.00
69784;BME280;57054;51.978;4.498;2023-12-04T01:05:59;101114.94;;;1.13;100.00
69784;BME280;57054;51.978;4.498;2023-12-04T01:08:25;101111.50;;;1.14;100.00
69784;BME280;57054;51.978;4.498;2023-12-04T01:10:50;101104.63;;;1.16;100.00
69784;BME280;57054;51.978;4.498;2023-12-04T01:13:16;101102.91;;;1.12;100.00
69784;BME280;57054;51.978;4.498;2023-12-04T01:15:41;101089.97;;;1.10;100.00
69784;BME280;57054;51.978;4.498;2023-12-04T01:18:07;101079.69;;;1.13;100.00
69784;BME280;57054;51.978;4.498;2023-12-04T01:20:33;101085.72;;;1.20;100.00
69784;BME280;57054;51.978;4.498;2023-12-04T01:22:58;101090.00;;;1.18;100.00
69784;BME280;57054;51.978;4.498;2023-12-04T01:25:23;101084.84;;;1.13;100.00
69784;BME280;57054;51.978;4.498;2023-12-04T01:27:49;101090.00;;;1.12;100.00
69784;BME280;57054;51.978;4.498;2023-12-04T01:30:14;101082.25;;;1.13;100.00
69784;BME280;57054;51.978;4.498;2023-12-04T01:32:40;101084.84;;;1.15;100.00
69784;BME280;57054;51.978;4.498;2023-12-04T01:35:05;101073.66;;;1.16;100.00
69784;BME280;57054;51.978;4.498;2023-12-04T01:37:31;101065.06;;;1.14;100.00
69784;BME280;57054;51.978;4.498;2023-12-04T01:39:57;101061.63;;;1.15;100.00
69784;BME280;57054;51.978;4.498;2023-12-04T01:42:22;101057.31;;;1.14;100.00
69784;BME280;57054;51.978;4.498;2023-12-04T01:44:47;101053.00;;;1.16;100.00
69784;BME280;57054;51.978;4.498;2023-12-04T01:47:13;101058.19;;;1.16;100.00
69784;BME280;57054;51.978;4.498;2023-12-04T01:49:39;101047.00;;;1.12;100.00
69784;BME280;57054;51.978;4.498;2023-12-04T01:52:05;101050.44;;;1.10;100.00
69784;BME280;57054;51.978;4.498;2023-12-04T01:54:31;101043.56;;;1.13;100.00
69784;BME280;57054;51.978;4.498;2023-12-04T01:56:57;101046.16;;;1.17;100.00
69784;BME280;57054;51.978;4.498;2023-12-04T01:59:24;101037.56;;;1.11;100.00
69784;BME280;57054;51.978;4.498;2023-12-04T02:01:51;101041.84;;;1.17;100.00
69784;BME280;57054;51.978;4.498;2023-12-04T02:04:17;101043.56;;;1.20;100.00
69784;BME280;57054;51.978;4.498;2023-12-04T02:06:43;101048.72;;;1.21;100.00
69784;BME280;57054;51.978;4.498;2023-12-04T02:09:09;101048.72;;;1.21;100.00
69784;BME280;57054;51.978;4.498;2023-12-04T02:11:37;101038.41;;;1.20;100.00
69784;BME280;57054;51.978;4.498;2023-12-04T02:14:04;101034.97;;;1.19;100.00
69784;BME280;57054;51.978;4.498;2023-12-04T02:16:31;101028.97;;;1.20;100.00
69784;BME280;57054;51.978;4.498;2023-12-04T02:18:58;101033.25;;;1.20;100.00
69784;BME280;57054;51.978;4.498;2023-12-04T02:21:23;101020.34;;;1.23;100.00
69784;BME280;57054;51.978;4.498;2023-12-04T02:23:50;101020.34;;;1.21;100.00
69784;BME280;57054;51.978;4.498;2023-12-04T02:26:17;101016.91;;;1.18;100.00
69784;BME280;57054;51.978;4.498;2023-12-04T02:28:55;101021.22;;;1.19;100.00
69784;BME280;57054;51.978;4.498;2023-12-04T02:31:22;101019.47;;;1.16;100.00
69784;BME280;57054;51.978;4.498;2023-12-04T02:33:52;101008.31;;;1.17;100.00
69784;BME280;57054;51.978;4.498;2023-12-04T02:36:19;101001.44;;;1.21;100.00
69784;BME280;57054;51.978;4.498;2023-12-04T02:38:45;101001.44;;;1.18;100.00
69784;BME280;57054;51.978;4.498;2023-12-04T02:41:10;101000.59;;;1.20;100.00
69784;BME280;57054;51.978;4.498;2023-12-04T02:43:35;100992.84;;;1.20;100.00
69784;BME280;57054;51.978;4.498;2023-12-04T02:46:01;100988.53;;;1.24;100.00
69784;BME280;57054;51.978;4.498;2023-12-04T02:48:26;100986.81;;;1.23;100.00
69784;BME280;57054;51.978;4.498;2023-12-04T02:50:52;100985.97;;;1.24;100.00
69784;BME280;57054;51.978;4.498;2023-12-04T02:53:17;100985.09;;;1.22;100.00
69784;BME280;57054;51.978;4.498;2023-12-04T02:55:42;100980.81;;;1.22;100.00
69784;BME280;57054;51.978;4.498;2023-12-04T02:58:08;100972.22;;;1.20;100.00
69784;BME280;57054;51.978;4.498;2023-12-04T03:00:33;100972.22;;;1.20;100.00
69784;BME280;57054;51.978;4.498;2023-12-04T03:02:58;100973.06;;;1.19;100.00
69784;BME280;57054;51.978;4.498;2023-12-04T03:05:24;100964.44;;;1.15;100.00
69784;BME280;57054;51.978;4.498;2023-12-04T03:07:49;100955.00;;;1.18;100.00
69784;BME280;57054;51.978;4.498;2023-12-04T03:10:14;100955.84;;;1.20;100.00
69784;BME280;57054;51.978;4.498;2023-12-04T03:12:40;100944.69;;;1.24;100.00
69784;BME280;57054;51.978;4.498;2023-12-04T03:15:05;100942.97;;;1.23;100.00
69784;BME280;57054;51.978;4.498;2023-12-04T03:17:31;100936.09;;;1.19;100.00
69784;BME280;57054;51.978;4.498;2023-12-04T03:19:56;100932.63;;;1.21;100.00
69784;BME280;57054;51.978;4.498;2023-12-04T03:22:21;100923.16;;;1.23;100.00
69784;BME280;57054;51.978;4.498;2023-12-04T03:24:47;100918.00;;;1.22;100.00
69784;BME280;57054;51.978;4.498;2023-12-04T03:27:12;100917.16;;;1.24;100.00
69784;BME280;57054;51.978;4.498;2023-12-04T03:29:37;100907.69;;;1.22;100.00
69784;BME280;57054;51.978;4.498;2023-12-04T03:32:03;100910.28;;;1.25;100.00
69784;BME280;57054;51.978;4.498;2023-12-04T03:34:28;100897.38;;;1.25;100.00
69784;BME280;57054;51.978;4.498;2023-12-04T03:36:54;100906.00;;;1.24;100.00
69784;BME280;57054;51.978;4.498;2023-12-04T03:39:19;100898.22;;;1.25;100.00
69784;BME280;57054;51.978;4.498;2023-12-04T03:41:44;100892.22;;;1.26;100.00
69784;BME280;57054;51.978;4.498;2023-12-04T03:44:10;100887.94;;;1.22;100.00
69784;BME280;57054;51.978;4.498;2023-12-04T03:46:35;100885.31;;;1.25;100.00
69784;BME280;57054;51.978;4.498;2023-12-04T03:49:01;100887.91;;;1.25;100.00
69784;BME280;57054;51.978;4.498;2023-12-04T03:51:26;100884.47;;;1.26;100.00
69784;BME280;57054;51.978;4.498;2023-12-04T03:53:51;100891.34;;;1.26;100.00
69784;BME280;57054;51.978;4.498;2023-12-04T03:56:17;100883.63;;;1.23;100.00
69784;BME280;57054;51.978;4.498;2023-12-04T03:58:42;100881.03;;;1.26;100.00
69784;BME280;57054;51.978;4.498;2023-12-04T04:01:07;100876.72;;;1.26;100.00
69784;BME280;57054;51.978;4.498;2023-12-04T04:03:32;100862.97;;;1.24;100.00
69784;BME280;57054;51.978;4.498;2023-12-04T04:05:58;100854.34;;;1.28;100.00
69784;BME280;57054;51.978;4.498;2023-12-04T04:08:23;100854.34;;;1.34;100.00
69784;BME280;57054;51.978;4.498;2023-12-04T04:10:48;100852.63;;;1.30;100.00
69784;BME280;57054;51.978;4.498;2023-12-04T04:13:14;100852.63;;;1.32;100.00
69784;BME280;57054;51.978;4.498;2023-12-04T04:15:39;100850.06;;;1.30;100.00
69784;BME280;57054;51.978;4.498;2023-12-04T04:18:04;100851.78;;;1.25;100.00
69784;BME280;57054;51.978;4.498;2023-12-04T04:20:30;100843.19;;;1.26;100.00
69784;BME280;57054;51.978;4.498;2023-12-04T04:22:55;100846.63;;;1.27;100.00
69784;BME280;57054;51.978;4.498;2023-12-04T04:25:21;100839.72;;;1.29;100.00
69784;BME280;57054;51.978;4.498;2023-12-04T04:27:48;100834.56;;;1.29;100.00
69784;BME280;57054;51.978;4.498;2023-12-04T04:30:13;100829.41;;;1.32;100.00
69784;BME280;57054;51.978;4.498;2023-12-04T04:32:39;100829.41;;;1.35;100.00
69784;BME280;57054;51.978;4.498;2023-12-04T04:35:04;100837.16;;;1.37;100.00
69784;BME280;57054;51.978;4.498;2023-12-04T04:37:29;100838.00;;;1.39;100.00
69784;BME280;57054;51.978;4.498;2023-12-04T04:39:55;100832.84;;;1.40;100.00
69784;BME280;57054;51.978;4.498;2023-12-04T04:42:22;100833.69;;;1.38;100.00
69784;BME280;57054;51.978;4.498;2023-12-04T04:44:48;100831.97;;;1.38;100.00
69784;BME280;57054;51.978;4.498;2023-12-04T04:47:13;100830.25;;;1.39;100.00
69784;BME280;57054;51.978;4.498;2023-12-04T04:49:38;100817.34;;;1.39;100.00
69784;BME280;57054;51.978;4.498;2023-12-04T04:52:04;100813.03;;;1.42;100.00
69784;BME280;57054;51.978;4.498;2023-12-04T04:54:32;100815.63;;;1.38;100.00
69784;BME280;57054;51.978;4.498;2023-12-04T04:56:58;100806.16;;;1.40;100.00
69784;BME280;57054;51.978;4.498;2023-12-04T04:59:23;100801.84;;;1.42;100.00
69784;BME280;57054;51.978;4.498;2023-12-04T05:01:48;100802.72;;;1.39;100.00
69784;BME280;57054;51.978;4.498;2023-12-04T05:04:14;100798.41;;;1.44;100.00
69784;BME280;57054;51.978;4.498;2023-12-04T05:06:39;100788.94;;;1.43;100.00
69784;BME280;57054;51.978;4.498;2023-12-04T05:09:04;100788.94;;;1.42;100.00
69784;BME280;57054;51.978;4.498;2023-12-04T05:11:30;100780.38;;;1.35;100.00
69784;BME280;57054;51.978;4.498;2023-12-04T05:13:55;100778.66;;;1.34;100.00
69784;BME280;57054;51.978;4.498;2023-12-04T05:16:20;100776.91;;;1.36;100.00
69784;BME280;57054;51.978;4.498;2023-12-04T05:18:46;100780.38;;;1.35;100.00
69784;BME280;57054;51.978;4.498;2023-12-04T05:21:11;100776.06;;;1.37;100.00
69784;BME280;57054;51.978;4.498;2023-12-04T05:23:37;100763.16;;;1.36;100.00
69784;BME280;57054;51.978;4.498;2023-12-04T05:26:05;100760.56;;;1.42;100.00
69784;BME280;57054;51.978;4.498;2023-12-04T05:28:30;100760.53;;;1.45;100.00
69784;BME280;57054;51.978;4.498;2023-12-04T05:30:55;100758.81;;;1.45;100.00
69784;BME280;57054;51.978;4.498;2023-12-04T05:33:21;100751.94;;;1.46;100.00
69784;BME280;57054;51.978;4.498;2023-12-04T05:35:48;100760.53;;;1.43;100.00
69784;BME280;57054;51.978;4.498;2023-12-04T05:38:13;100765.75;;;1.40;100.00
69784;BME280;57054;51.978;4.498;2023-12-04T05:40:39;100771.75;;;1.41;100.00
69784;BME280;57054;51.978;4.498;2023-12-04T05:43:04;100757.97;;;1.43;100.00
69784;BME280;57054;51.978;4.498;2023-12-04T05:45:29;100770.88;;;1.42;100.00
69784;BME280;57054;51.978;4.498;2023-12-04T05:47:55;100774.34;;;1.44;100.00
69784;BME280;57054;51.978;4.498;2023-12-04T05:50:21;100769.13;;;1.45;100.00
69784;BME280;57054;51.978;4.498;2023-12-04T05:52:46;100763.13;;;1.43;100.00
69784;BME280;57054;51.978;4.498;2023-12-04T05:55:11;100752.81;;;1.46;100.00
69784;BME280;57054;51.978;4.498;2023-12-04T05:57:39;100758.81;;;1.47;100.00
69784;BME280;57054;51.978;4.498;2023-12-04T06:00:06;100759.66;;;1.47;100.00
69784;BME280;57054;51.978;4.498;2023-12-04T06:02:37;100763.97;;;1.50;100.00
69784;BME280;57054;51.978;4.498;2023-12-04T06:05:03;100765.66;;;1.54;100.00
69784;BME280;57054;51.978;4.498;2023-12-04T06:07:28;100746.75;;;1.50;100.00
69784;BME280;57054;51.978;4.498;2023-12-04T06:09:54;100755.34;;;1.54;100.00
69784;BME280;57054;51.978;4.498;2023-12-04T06:12:19;100742.44;;;1.52;100.00
69784;BME280;57054;51.978;4.498;2023-12-04T06:14:44;100742.47;;;1.49;100.00
69784;BME280;57054;51.978;4.498;2023-12-04T06:17:10;100733.84;;;1.50;100.00
69784;BME280;57054;51.978;4.498;2023-12-04T06:19:35;100727.81;;;1.53;100.00
69784;BME280;57054;51.978;4.498;2023-12-04T06:22:00;100727.78;;;1.54;100.00
69784;BME280;57054;51.978;4.498;2023-12-04T06:24:26;100726.94;;;1.60;100.00
69784;BME280;57054;51.978;4.498;2023-12-04T06:26:52;100724.34;;;1.59;100.00
69784;BME280;57054;51.978;4.498;2023-12-04T06:29:18;100712.31;;;1.56;100.00
69784;BME280;57054;51.978;4.498;2023-12-04T06:31:44;100709.72;;;1.58;100.00
69784;BME280;57054;51.978;4.498;2023-12-04T06:34:10;100710.56;;;1.61;100.00
69784;BME280;57054;51.978;4.498;2023-12-04T06:36:38;100714.03;;;1.57;100.00
69784;BME280;57054;51.978;4.498;2023-12-04T06:39:07;100716.63;;;1.54;100.00
69784;BME280;57054;51.978;4.498;2023-12-04T06:41:34;100707.19;;;1.50;100.00
69784;BME280;57054;51.978;4.498;2023-12-04T06:44:00;100707.19;;;1.50;100.00
69784;BME280;57054;51.978;4.498;2023-12-04T06:46:27;100700.28;;;1.53;100.00
69784;BME280;57054;51.978;4.498;2023-12-04T06:48:56;100697.69;;;1.53;100.00
69784;BME280;57054;51.978;4.498;2023-12-04T06:51:22;100698.56;;;1.51;100.00
69784;BME280;57054;51.978;4.498;2023-12-04T06:53:47;100703.72;;;1.51;100.00
69784;BME280;57054;51.978;4.498;2023-12-04T06:56:13;100707.13;;;1.56;100.00
69784;BME280;57054;51.978;4.498;2023-12-04T06:58:38;100706.28;;;1.54;100.00
69784;BME280;57054;51.978;4.498;2023-12-04T07:01:03;100701.13;;;1.54;100.00
69784;BME280;57054;51.978;4.498;2023-12-04T07:03:29;100699.38;;;1.58;100.00
69784;BME280;57054;51.978;4.498;2023-12-04T07:05:54;100698.50;;;1.63;100.00
69784;BME280;57054;51.978;4.498;2023-12-04T07:08:20;100683.84;;;1.67;100.00
69784;BME280;57054;51.978;4.498;2023-12-04T07:10:45;100688.16;;;1.69;100.00
69784;BME280;57054;51.978;4.498;2023-12-04T07:13:10;100697.63;;;1.64;100.00
69784;BME280;57054;51.978;4.498;2023-12-04T07:15:38;100678.69;;;1.65;100.00
69784;BME280;57054;51.978;4.498;2023-12-04T07:18:03;100689.06;;;1.64;100.00
69784;BME280;57054;51.978;4.498;2023-12-04T07:20:29;100678.72;;;1.64;100.00
69784;BME280;57054;51.978;4.498;2023-12-04T07:22:54;100676.09;;;1.65;100.00
69784;BME280;57054;51.978;4.498;2023-12-04T07:25:20;100670.97;;;1.62;100.00
69784;BME280;57054;51.978;4.498;2023-12-04T07:27:45;100663.22;;;1.64;100.00
69784;BME280;57054;51.978;4.498;2023-12-04T07:30:12;100669.22;;;1.67;100.00
69784;BME280;57054;51.978;4.498;2023-12-04T07:32:37;100665.78;;;1.67;100.00
69784;BME280;57054;51.978;4.498;2023-12-04T07:35:04;100659.78;;;1.62;100.00
69784;BME280;57054;51.978;4.498;2023-12-04T07:37:29;100658.06;;;1.64;100.00
69784;BME280;57054;51.978;4.498;2023-12-04T07:39:56;100661.44;;;1.69;100.00
69784;BME280;57054;51.978;4.498;2023-12-04T07:42:22;100663.19;;;1.68;100.00
69784;BME280;57054;51.978;4.498;2023-12-04T07:44:48;100665.75;;;1.70;100.00
69784;BME280;57054;51.978;4.498;2023-12-04T07:47:14;100650.28;;;1.70;100.00
69784;BME280;57054;51.978;4.498;2023-12-04T07:49:41;100658.03;;;1.68;100.00
69784;BME280;57054;51.978;4.498;2023-12-04T07:52:07;100657.13;;;1.72;100.00
69784;BME280;57054;51.978;4.498;2023-12-04T07:54:32;100660.59;;;1.73;100.00
69784;BME280;57054;51.978;4.498;2023-12-04T07:56:58;100652.81;;;1.75;100.00
69784;BME280;57054;51.978;4.498;2023-12-04T07:59:23;100669.19;;;1.75;100.00
69784;BME280;57054;51.978;4.498;2023-12-04T08:01:49;100688.09;;;1.76;100.00
69784;BME280;57054;51.978;4.498;2023-12-04T08:04:14;100686.38;;;1.75;100.00
69784;BME280;57054;51.978;4.498;2023-12-04T08:06:39;100681.19;;;1.75;99.89
69784;BME280;57054;51.978;4.498;2023-12-04T08:09:05;100682.03;;;1.78;100.00
69784;BME280;57054;51.978;4.498;2023-12-04T08:11:34;100676.03;;;1.78;100.00
69784;BME280;57054;51.978;4.498;2023-12-04T08:13:59;100670.88;;;1.76;100.00
69784;BME280;57054;51.978;4.498;2023-12-04T08:16:25;100664.84;;;1.79;100.00
69784;BME280;57054;51.978;4.498;2023-12-04T08:18:54;100669.97;;;1.82;100.00
69784;BME280;57054;51.978;4.498;2023-12-04T08:21:19;100660.53;;;1.81;99.95
69784;BME280;57054;51.978;4.498;2023-12-04T08:23:44;100655.34;;;1.84;99.71
69784;BME280;57054;51.978;4.498;2023-12-04T08:26:10;100661.38;;;1.81;99.64
69784;BME280;57054;51.978;4.498;2023-12-04T08:28:35;100661.38;;;1.81;99.60
69784;BME280;57054;51.978;4.498;2023-12-04T08:31:03;100657.94;;;1.79;99.66
69784;BME280;57054;51.978;4.498;2023-12-04T08:33:28;100657.09;;;1.79;99.27
69784;BME280;57054;51.978;4.498;2023-12-04T08:35:54;100642.44;;;1.81;98.94
69784;BME280;57054;51.978;4.498;2023-12-04T08:38:19;100640.69;;;1.84;99.33
69784;BME280;57054;51.978;4.498;2023-12-04T08:40:45;100639.00;;;1.80;98.83
69784;BME280;57054;51.978;4.498;2023-12-04T08:43:10;100635.53;;;1.83;99.01
69784;BME280;57054;51.978;4.498;2023-12-04T08:45:35;100632.13;;;1.78;97.39
69784;BME280;57054;51.978;4.498;2023-12-04T08:48:01;100626.06;;;1.82;97.86
69784;BME280;57054;51.978;4.498;2023-12-04T08:50:26;100621.78;;;1.84;98.08
69784;BME280;57054;51.978;4.498;2023-12-04T08:52:52;100623.44;;;1.88;98.48
69784;BME280;57054;51.978;4.498;2023-12-04T08:55:17;100614.88;;;1.86;98.66
69784;BME280;57054;51.978;4.498;2023-12-04T08:57:42;100611.41;;;1.85;98.94
69784;BME280;57054;51.978;4.498;2023-12-04T09:00:08;100614.88;;;1.81;97.91
69784;BME280;57054;51.978;4.498;2023-12-04T09:02:34;100610.56;;;1.82;97.75
69784;BME280;57054;51.978;4.498;2023-12-04T09:04:59;100615.72;;;1.86;98.15
69784;BME280;57054;51.978;4.498;2023-12-04T09:07:25;100606.22;;;1.87;98.14
69784;BME280;57054;51.978;4.498;2023-12-04T09:09:50;100605.31;;;1.91;98.38
69784;BME280;57054;51.978;4.498;2023-12-04T09:12:16;100606.22;;;1.90;98.48
69784;BME280;57054;51.978;4.498;2023-12-04T09:14:41;100605.31;;;1.91;98.47
69784;BME280;57054;51.978;4.498;2023-12-04T09:17:06;100610.47;;;1.94;98.45
69784;BME280;57054;51.978;4.498;2023-12-04T09:19:32;100609.63;;;1.92;98.59
69784;BME280;57054;51.978;4.498;2023-12-04T09:21:58;100612.22;;;1.90;97.94
69784;BME280;57054;51.978;4.498;2023-12-04T09:24:23;100617.41;;;1.89;97.67
69784;BME280;57054;51.978;4.498;2023-12-04T09:26:50;100623.44;;;1.89;96.90
69784;BME280;57054;51.978;4.498;2023-12-04T09:29:15;100619.94;;;1.95;97.53
69784;BME280;57054;51.978;4.498;2023-12-04T09:31:41;100616.47;;;1.96;97.82
69784;BME280;57054;51.978;4.498;2023-12-04T09:34:07;100618.19;;;1.99;98.11
69784;BME280;57054;51.978;4.498;2023-12-04T09:36:33;100613.03;;;2.00;97.49
69784;BME280;57054;51.978;4.498;2023-12-04T09:38:58;100611.31;;;1.98;97.50
69784;BME280;57054;51.978;4.498;2023-12-04T09:41:24;100610.38;;;2.05;98.16
69784;BME280;57054;51.978;4.498;2023-12-04T09:43:50;100604.34;;;2.06;98.36
69784;BME280;57054;51.978;4.498;2023-12-04T09:46:16;100606.03;;;2.11;99.08
69784;BME280;57054;51.978;4.498;2023-12-04T09:48:43;100601.75;;;2.07;98.30
69784;BME280;57054;51.978;4.498;2023-12-04T09:51:09;100598.31;;;2.05;97.92
69784;BME280;57054;51.978;4.498;2023-12-04T09:53:35;100594.03;;;2.04;98.06
69784;BME280;57054;51.978;4.498;2023-12-04T09:56:03;100589.72;;;2.02;97.07
69784;BME280;57054;51.978;4.498;2023-12-04T09:58:30;100585.44;;;2.02;97.31
69784;BME280;57054;51.978;4.498;2023-12-04T10:00:58;100581.94;;;2.08;97.81
69784;BME280;57054;51.978;4.498;2023-12-04T10:03:25;100578.53;;;2.06;97.19
69784;BME280;57054;51.978;4.498;2023-12-04T10:05:50;100579.38;;;2.05;96.87
69784;BME280;57054;51.978;4.498;2023-12-04T10:08:16;100576.78;;;2.06;97.42
69784;BME280;57054;51.978;4.498;2023-12-04T10:10:42;100569.88;;;2.08;97.39
69784;BME280;57054;51.978;4.498;2023-12-04T10:13:08;100566.44;;;2.08;97.07
69784;BME280;57054;51.978;4.498;2023-12-04T10:15:33;100558.69;;;2.09;96.84
69784;BME280;57054;51.978;4.498;2023-12-04T10:18:27;100560.44;;;2.07;95.70
69784;BME280;57054;51.978;4.498;2023-12-04T10:20:53;100556.03;;;2.14;95.91
69784;BME280;57054;51.978;4.498;2023-12-04T10:23:19;100551.69;;;2.16;95.98
69784;BME280;57054;51.978;4.498;2023-12-04T10:25:45;100545.66;;;2.20;96.59
69784;BME280;57054;51.978;4.498;2023-12-04T10:28:12;100539.59;;;2.23;96.77
69784;BME280;57054;51.978;4.498;2023-12-04T10:30:38;100530.09;;;2.23;96.19
69784;BME280;57054;51.978;4.498;2023-12-04T10:33:05;100522.31;;;2.26;96.24
69784;BME280;57054;51.978;4.498;2023-12-04T10:35:32;100527.50;;;2.26;96.25
69784;BME280;57054;51.978;4.498;2023-12-04T10:37:58;100517.94;;;2.33;96.48
69784;BME280;57054;51.978;4.498;2023-12-04T10:40:32;100519.66;;;2.33;96.42
69784;BME280;57054;51.978;4.498;2023-12-04T10:43:17;100522.22;;;2.36;96.39
69784;BME280;57054;51.978;4.498;2023-12-04T10:45:44;100514.38;;;2.42;96.73
69784;BME280;57054;51.978;4.498;2023-12-04T10:48:11;100514.38;;;2.42;96.75
69784;BME280;57054;51.978;4.498;2023-12-04T10:50:38;100510.91;;;2.46;96.94
69784;BME280;57054;51.978;4.498;2023-12-04T10:53:05;100509.16;;;2.48;97.51
69784;BME280;57054;51.978;4.498;2023-12-04T10:55:31;100495.38;;;2.47;97.86
69784;BME280;57054;51.978;4.498;2023-12-04T10:57:59;100487.63;;;2.46;97.56
69784;BME280;57054;51.978;4.498;2023-12-04T11:00:26;100485.03;;;2.46;97.03
69784;BME280;57054;51.978;4.498;2023-12-04T11:02:55;100480.72;;;2.46;96.80
69784;BME280;57054;51.978;4.498;2023-12-04T11:05:23;100486.75;;;2.45;96.62
69784;BME280;57054;51.978;4.498;2023-12-04T11:07:54;100486.72;;;2.50;96.54
69784;BME280;57054;51.978;4.498;2023-12-04T11:10:22;100491.88;;;2.50;97.00
69784;BME280;57054;51.978;4.498;2023-12-04T11:12:57;100485.84;;;2.51;96.93
69784;BME280;57054;51.978;4.498;2023-12-04T11:15:27;100483.25;;;2.51;96.56
69784;BME280;57054;51.978;4.498;2023-12-04T11:17:59;100478.09;;;2.51;96.55
69784;BME280;57054;51.978;4.498;2023-12-04T11:20:27;100480.63;;;2.54;96.70
69784;BME280;57054;51.978;4.498;2023-12-04T11:22:56;100473.78;;;2.50;96.80
69784;BME280;57054;51.978;4.498;2023-12-04T11:25:23;100478.09;;;2.49;96.97
69784;BME280;57054;51.978;4.498;2023-12-04T11:27:51;100464.31;;;2.49;96.83
69784;BME280;57054;51.978;4.498;2023-12-04T11:30:17;100461.66;;;2.54;97.08
69784;BME280;57054;51.978;4.498;2023-12-04T11:32:48;100459.09;;;2.54;97.33
69784;BME280;57054;51.978;4.498;2023-12-04T11:35:15;100465.06;;;2.57;97.66
69784;BME280;57054;51.978;4.498;2023-12-04T11:37:42;100459.94;;;2.54;97.85
69784;BME280;57054;51.978;4.498;2023-12-04T11:40:11;100456.50;;;2.54;98.12
69784;BME280;57054;51.978;4.498;2023-12-04T11:42:37;100453.91;;;2.54;98.47
69784;BME280;57054;51.978;4.498;2023-12-04T11:45:05;100450.50;;;2.52;98.82
69784;BME280;57054;51.978;4.498;2023-12-04T11:47:31;100440.16;;;2.53;99.23
69784;BME280;57054;51.978;4.498;2023-12-04T11:50:13;100438.41;;;2.54;98.94
69784;BME280;57054;51.978;4.498;2023-12-04T11:52:38;100433.16;;;2.58;99.19
69784;BME280;57054;51.978;4.498;2023-12-04T11:55:04;100427.97;;;2.60;99.53
69784;BME280;57054;51.978;4.498;2023-12-04T11:57:35;100417.69;;;2.57;100.00
69784;BME280;57054;51.978;4.498;2023-12-04T12:00:21;100415.97;;;2.56;100.00
69784;BME280;57054;51.978;4.498;2023-12-04T12:05:22;100406.53;;;2.53;100.00
69784;BME280;57054;51.978;4.498;2023-12-04T12:07:48;100403.03;;;2.57;100.00
69784;BME280;57054;51.978;4.498;2023-12-04T12:10:13;100398.69;;;2.59;100.00
69784;BME280;57054;51.978;4.498;2023-12-04T12:12:39;100388.22;;;2.65;100.00
69784;BME280;57054;51.978;4.498;2023-12-04T12:15:11;100384.00;;;2.61;100.00
69784;BME280;57054;51.978;4.498;2023-12-04T12:17:40;100379.56;;;2.69;100.00
69784;BME280;57054;51.978;4.498;2023-12-04T12:20:07;100375.22;;;2.73;100.00
69784;BME280;57054;51.978;4.498;2023-12-04T12:22:36;100370.06;;;2.72;100.00
69784;BME280;57054;51.978;4.498;2023-12-04T12:25:07;100363.16;;;2.71;100.00
69784;BME280;57054;51.978;4.498;2023-12-04T12:27:32;100359.72;;;2.70;100.00
69784;BME280;57054;51.978;4.498;2023-12-04T12:29:58;100362.34;;;2.67;100.00
69784;BME280;57054;51.978;4.498;2023-12-04T12:32:23;100357.25;;;2.64;100.00
69784;BME280;57054;51.978;4.498;2023-12-04T12:34:49;100361.50;;;2.68;100.00
69784;BME280;57054;51.978;4.498;2023-12-04T12:37:15;100357.16;;;2.70;100.00
69784;BME280;57054;51.978;4.498;2023-12-04T12:39:40;100353.72;;;2.69;100.00
69784;BME280;57054;51.978;4.498;2023-12-04T12:42:06;100356.19;;;2.77;100.00
69784;BME280;57054;51.978;4.498;2023-12-04T12:44:40;100349.22;;;2.81;100.00
69784;BME280;57054;51.978;4.498;2023-12-04T12:47:06;100348.41;;;2.77;100.00
69784;BME280;57054;51.978;4.498;2023-12-04T12:49:32;100351.06;;;2.73;100.00